Flight Track Log - Related Links

Times and Time Zones

All times are in EDT time to prevent confusion due to time zone crossing. See the SWA554 flight status page for this flight to view local times or setup timezone preferences in your user account.

Time Position Orientation Groundspeed Altitude Reporting Facility
EDT Latitude Longitude Course Direction KTS MPH feet Rate Location/Type
Tue 05:45:56 PM 39.1167 -76.7167 131° Southeast 267 307 3,500  Level Potomac TRACON
Tue 05:46:56 PM 39.1167 -76.6167 90° East 288 331 6,700 2,670 Climbing Potomac TRACON
Tue 05:49:07 PM 39.1400 -76.3783 83° East 330 380 12,000 2,733 Climbing Washington Center
Tue 05:50:00 PM 39.1667 -76.6363 270° West  Level FlightAware Approximate
Tue 05:50:07 PM 39.1514 -76.2392 84° East 361 415 15,400  Level Washington Center
Tue 05:51:07 PM 39.1667 -76.0922 82° East 391 450 18,100 2,622 Climbing Washington Center
Tue 05:52:06 PM 39.1858 -75.9425 81° East 409 471 20,600 2,400 Climbing Washington Center
Tue 05:53:07 PM 39.2467 -75.8114 59° Northeast 424 488 22,900 1,200 Climbing Washington Center
Tue 05:54:06 PM 39.3322 -75.6989 45° Northeast 415 478 23,000 50 Climbing Washington Center
Tue 05:55:06 PM 39.4178 -75.5889 45° Northeast 422 486 23,000 100 Level Washington Center
Tue 05:56:06 PM 39.5050 -75.4786 44° Northeast 428 493 23,200 1,190 Climbing Washington Center
Tue 05:57:07 PM 39.5925 -75.3653 45° Northeast 428 493 25,400 2,083 Climbing Washington Center
Tue 05:58:07 PM 39.6775 -75.2464 47° Northeast 435 501 27,400 1,800 Climbing Washington Center
Tue 05:59:07 PM 39.7564 -75.1300 49° Northeast 455 524 29,000 744 Climbing Washington Center
Tue 06:00:16 PM 39.8589 -74.9894 46° Northeast 455 524 29,000  Level New York Center
Tue 06:01:16 PM 39.9467 -74.8622 48° Northeast 465 535 29,000  Level New York Center
Tue 06:02:17 PM 40.0344 -74.7372 47° Northeast 465 535 29,000  Level New York Center
Tue 06:03:17 PM 40.1331 -74.5936 48° Northeast 475 547 29,000  Level New York Center
Tue 06:04:16 PM 40.2267 -74.4681 46° Northeast 470 541 29,000  Level New York Center
Tue 06:05:17 PM 40.3258 -74.3619 39° Northeast 469 540 29,000  Level New York Center
Tue 06:06:18 PM 40.4267 -74.2581 38° Northeast 464 534 29,000  Level New York Center
Tue 06:07:18 PM 40.5447 -74.2150 15° North 433 498 29,000  Level New York Center
Tue 06:08:16 PM 40.6642 -74.1936 North 428 493 29,000 -50 Level New York Center
Tue 06:09:18 PM 40.7814 -74.1747 North 428 493 28,900 -340 Descending New York Center
Tue 06:11:48 PM 41.0497 -74.1272 North 405 466 27,800 -545 Descending Boston Center
Tue 06:12:47 PM 41.1586 -74.1053 North 405 466 27,000 -364 Descending Boston Center
Tue 06:14:00 PM 41.2944 -74.0811 North 394 453 27,000  Level Boston Center
Tue 06:14:58 PM 41.4072 -74.0564 North 388 447 27,000  Level Boston Center
Tue 06:15:59 PM 41.5097 -74.0394 North 399 459 27,000  Level Boston Center
Tue 06:16:59 PM 41.6203 -74.0231 North 404 465 27,000  Level Boston Center
Tue 06:18:00 PM 41.7353 -74.0008 North 404 465 27,000  Level Boston Center
Tue 06:18:58 PM 41.8586 -73.9758 North 411 473 27,000  Level Boston Center
Tue 06:19:58 PM 41.9675 -73.9256 19° North 406 467 27,000  Level Boston Center
Tue 06:21:00 PM 42.0403 -73.7903 54° Northeast 417 480 27,000 -344 Level Boston Center
Tue 06:22:00 PM 42.1083 -73.6575 55° Northeast 444 511 26,300 -915 Descending Boston Center
Tue 06:22:58 PM 42.1828 -73.5131 55° Northeast 450 518 25,200 -1,068 Descending Boston Center
Tue 06:23:58 PM 42.2569 -73.3686 55° Northeast 456 525 24,200 -1,041 Descending Boston Center
Tue 06:24:59 PM 42.3289 -73.2264 56° Northeast 443 510 23,100 -992 Descending Boston Center
Tue 06:25:59 PM 42.3986 -73.0867 56° Northeast 453 521 22,200 -942 Descending Boston Center
Tue 06:27:00 PM 42.4681 -72.9467 56° Northeast 447 514 21,200 -992 Descending Boston Center
Tue 06:28:00 PM 42.5353 -72.8119 56° Northeast 436 502 20,200 -1,119 Descending Boston Center
Tue 06:28:58 PM 42.6003 -72.6828 56° Northeast 424 488 19,000 -1,576 Descending Boston Center
Tue 06:29:58 PM 42.6589 -72.5700 55° Northeast 416 479 17,100 -2,033 Descending Boston Center
Tue 06:30:59 PM 42.7214 -72.4428 56° Northeast 416 479 14,900 -2,115 Descending Boston Center
Tue 06:32:00 PM 42.7817 -72.3183 57° Northeast 411 473 12,800 -2,118 Descending Boston Center
Tue 06:32:58 PM 42.8022 -72.1769 79° East 373 429 10,700 -1,475 Descending Boston Center
Tue 06:33:58 PM 42.8103 -72.0297 86° East 366 421 9,900 -942 Descending Boston Center
Tue 06:34:59 PM 42.8014 -71.9167 96° East 337 388 8,800 -1,279 Descending Boston Center
Tue 06:36:00 PM 42.7883 -71.7839 98° East 326 375 7,300 -1,261 Descending Boston Center
Tue 06:36:58 PM 42.7772 -71.6792 98° East 316 364 6,300 -763 Descending Boston Center
Tue 06:37:58 PM 42.7658 -71.5633 98° East 293 337 5,800 -645 Descending Boston Center
Tue 06:38:59 PM 42.7569 -71.4703 97° East 261 300 5,000 -1,000 Descending Boston Center
Tue 06:39:58 PM 42.7581 -71.3853 89° East 229 264 3,800 -1,311 Descending Boston Center
Tue 06:40:58 PM 42.8058 -71.3647 18° North 165 190 2,400 -942 Descending Boston Center
Tue 06:41:59 PM 42.8478 -71.3811 344° North 146 168 1,900 -694 Descending Boston Center
Tue 06:42:59 PM 42.8833 -71.4058 333° Northwest 151 174 1,000 -793 Descending Boston Center
Tue 06:44:00 PM 42.9189 -71.4281 335° Northwest 145 167 300 -347 Descending Boston Center
Tue 06:45:00 PM 42.9525 -71.4528 332° Northwest 145 167 300 4,424 Level Boston Center
Tue 06:45:58 PM 42.9883 -71.4808 330° Northwest 145 167 9,000 4,387 Climbing Boston Center
Tue 06:46:59 PM 43.0261 -71.5086 332° Northwest 145 167 9,000  Level Boston Center
Tue 06:48:00 PM 42.9328 -71.4358 160° South  Level Estimated
Tue 06:55:00 PM 42.9328 -71.4358 160° South  Level Estimated
Tue 06:56:00 PM 42.9328 -71.4358 160° South  Level Estimated
Tue 06:57:00 PM 42.9328 -71.4358 160° South  Level Estimated
Tue 06:58:00 PM 42.9328 -71.4358 160° South  Level Estimated
Tue 06:59:00 PM 42.9328 -71.4358 160° South  Level Estimated
Tue 07:00:00 PM 42.9328 -71.4358 160° South  Level Estimated
Tue 07:01:00 PM 42.9328 -71.4358 160° South  Level Estimated
Tue 07:02:00 PM 42.9328 -71.4358 160° South  Level Estimated

Login

Don't have an account? Register now (free) for customized features, flight alerts, and more!